createdAt,value
2017-04-11T00:00:27.874Z,20.52
2017-04-11T00:01:38.404Z,20.49
2017-04-11T00:02:48.764Z,20.49
2017-04-11T00:03:59.071Z,20.4
2017-04-11T00:05:09.358Z,20.48
2017-04-11T00:06:19.648Z,20.42
2017-04-11T00:07:29.924Z,20.46
2017-04-11T00:08:40.234Z,20.55
2017-04-11T00:09:50.242Z,20.48
2017-04-11T00:11:00.565Z,20.56
2017-04-11T00:12:11.857Z,20.48
2017-04-11T00:13:22.386Z,20.52
2017-04-11T00:14:32.670Z,20.48
2017-04-11T00:15:42.945Z,20.39
2017-04-11T00:16:53.238Z,20.4
2017-04-11T00:18:03.234Z,20.48
2017-04-11T00:19:13.821Z,20.37
2017-04-11T00:20:24.113Z,20.44
2017-04-11T00:21:34.079Z,20.46
2017-04-11T00:22:44.369Z,20.53
2017-04-11T00:23:54.646Z,20.5
2017-04-11T00:25:04.919Z,20.42
2017-04-11T00:26:14.905Z,20.44
2017-04-11T00:27:24.899Z,20.53
2017-04-11T00:28:35.222Z,20.44
2017-04-11T00:29:45.518Z,20.42
2017-04-11T00:30:55.758Z,20.56
2017-04-11T00:32:06.060Z,20.55
2017-04-11T00:33:16.356Z,20.39
2017-04-11T00:34:26.640Z,20.5
2017-04-11T00:35:36.953Z,20.53
2017-04-11T00:36:47.483Z,20.55
2017-04-11T00:37:57.464Z,20.48
2017-04-11T00:39:07.789Z,20.42
2017-04-11T00:40:18.156Z,20.42
2017-04-11T00:41:28.142Z,20.42
2017-04-11T00:42:38.682Z,20.44
2017-04-11T00:43:49.025Z,20.48
2017-04-11T00:44:59.310Z,20.52
2017-04-11T00:46:09.607Z,20.42
2017-04-11T00:47:19.884Z,20.56
2017-04-11T00:48:30.102Z,20.4
2017-04-11T00:49:40.070Z,20.37
2017-04-11T00:50:50.358Z,20.4
2017-04-11T00:52:00.317Z,20.32
2017-04-11T00:53:10.612Z,20.3
2017-04-11T00:54:21.151Z,20.34
2017-04-11T00:55:31.439Z,20.34
2017-04-11T00:56:41.730Z,20.29
2017-04-11T00:57:52.026Z,20.34
2017-04-11T00:59:01.995Z,20.36
2017-04-11T01:00:12.548Z,20.3
2017-04-11T01:01:22.214Z,20.36
2017-04-11T01:02:32.516Z,20.3
2017-04-11T01:03:42.180Z,20.33
2017-04-11T01:04:52.456Z,20.24
2017-04-11T01:06:03.024Z,20.36
2017-04-11T01:07:13.320Z,20.19
2017-04-11T01:08:23.287Z,20.29
2017-04-11T01:09:33.581Z,20.32
2017-04-11T01:10:43.860Z,20.33
2017-04-11T01:11:54.132Z,20.26
2017-04-11T01:13:04.414Z,20.22
2017-04-11T01:14:14.389Z,20.19
2017-04-11T01:15:24.062Z,20.22
2017-04-11T01:16:34.340Z,20.26
2017-04-11T01:17:44.644Z,20.24
2017-04-11T01:18:54.923Z,20.19
2017-04-11T01:20:04.897Z,20.22
2017-04-11T01:21:14.560Z,20.18
2017-04-11T01:22:24.555Z,20.24
2017-04-11T01:23:35.145Z,20.21
2017-04-11T01:24:45.428Z,20.34
2017-04-11T01:25:55.718Z,20.27
2017-04-11T01:27:05.387Z,20.22
2017-04-11T01:28:15.472Z,20.3
2017-04-11T01:29:26.015Z,20.21
2017-04-11T01:30:35.989Z,20.22
2017-04-11T01:31:46.297Z,20.18
2017-04-11T01:32:56.275Z,20.18
2017-04-11T01:34:06.558Z,20.19
2017-04-11T01:35:17.104Z,20.34
2017-04-11T01:36:27.402Z,20.34
2017-04-11T01:37:37.374Z,20.34
2017-04-11T01:38:47.038Z,20.22
2017-04-11T01:39:57.325Z,20.21
2017-04-11T01:41:07.542Z,20.24
2017-04-11T01:42:17.847Z,20.18
2017-04-11T01:43:28.130Z,20.26
2017-04-11T01:44:38.408Z,20.3
2017-04-11T01:45:48.682Z,20.26
2017-04-11T01:46:59.220Z,20.21
2017-04-11T01:48:09.494Z,20.18
2017-04-11T01:49:19.776Z,20.22
2017-04-11T01:50:30.068Z,20.21
2017-04-11T01:51:40.351Z,20.19
2017-04-11T01:52:50.888Z,20.19
2017-04-11T01:54:00.877Z,20.18
2017-04-11T01:55:11.182Z,20.24
2017-04-11T01:56:21.462Z,20.14
2017-04-11T01:57:31.743Z,20.11
2017-04-11T01:58:41.705Z,20.12
2017-04-11T01:59:51.997Z,20.12
2017-04-11T02:01:01.977Z,20.17
2017-04-11T02:02:12.163Z,20.17
2017-04-11T02:03:22.456Z,20.22
2017-04-11T02:04:33.055Z,20.15
2017-04-11T02:05:43.333Z,20.14
2017-04-11T02:06:53.625Z,20.12
2017-04-11T02:08:03.590Z,20.14
2017-04-11T02:09:13.932Z,20.19
2017-04-11T02:10:24.192Z,20.18
2017-04-11T02:11:34.514Z,20.14
2017-04-11T02:12:44.802Z,20.12
2017-04-11T02:13:55.075Z,20.12
2017-04-11T02:15:05.057Z,20.08
2017-04-11T02:16:15.642Z,20.11
2017-04-11T02:17:25.946Z,20.19
2017-04-11T02:18:36.231Z,20.22
2017-04-11T02:19:45.890Z,20.1
2017-04-11T02:20:56.172Z,20.11
2017-04-11T02:22:06.709Z,20.11
2017-04-11T02:23:17.001Z,20.12
2017-04-11T02:24:26.978Z,20.18
2017-04-11T02:25:37.267Z,20.12
2017-04-11T02:26:47.237Z,20.14
2017-04-11T02:27:57.781Z,20.11
2017-04-11T02:29:07.765Z,20.21
2017-04-11T02:30:17.741Z,20.1
2017-04-11T02:31:28.031Z,20.11
2017-04-11T02:32:38.002Z,20.11
2017-04-11T02:33:48.565Z,20.1
2017-04-11T02:34:58.557Z,20.12
2017-04-11T02:36:08.850Z,20.11
2017-04-11T02:37:19.372Z,20.1
2017-04-11T02:38:29.672Z,20.11
2017-04-11T02:39:40.207Z,20.07
2017-04-11T02:40:50.178Z,20.08
2017-04-11T02:42:00.470Z,20.03
2017-04-11T02:43:10.769Z,20.11
2017-04-11T02:44:21.350Z,20.07
2017-04-11T02:45:31.956Z,19.96
2017-04-11T02:46:41.625Z,20.04
2017-04-11T02:47:51.603Z,20.04
2017-04-11T02:49:01.903Z,19.97
2017-04-11T02:50:11.884Z,20.02
2017-04-11T02:51:22.435Z,20.03
2017-04-11T02:52:32.728Z,20.07
2017-04-11T02:53:43.006Z,19.97
2017-04-11T02:54:52.984Z,20.1
2017-04-11T02:56:02.972Z,20.1
2017-04-11T02:57:13.744Z,20.03
2017-04-11T02:58:24.026Z,19.99
2017-04-11T02:59:34.303Z,20.12
2017-04-11T03:00:43.975Z,20.02
2017-04-11T03:01:54.258Z,20.11
2017-04-11T03:03:04.797Z,20.08
2017-04-11T03:04:15.144Z,20.07
2017-04-11T03:05:25.434Z,20.15
2017-04-11T03:06:35.100Z,20.1
2017-04-11T03:07:45.382Z,20.1
2017-04-11T03:08:55.661Z,20.03
2017-04-11T03:10:05.940Z,20.04
2017-04-11T03:11:15.624Z,20.04
2017-04-11T03:12:25.910Z,20
2017-04-11T03:13:35.891Z,20.03
2017-04-11T03:14:46.112Z,20.03
2017-04-11T03:15:56.404Z,20.03
2017-04-11T03:17:06.380Z,20
2017-04-11T03:18:16.702Z,20
2017-04-11T03:19:26.980Z,20.08
2017-04-11T03:20:37.207Z,20
2017-04-11T03:21:47.486Z,20
2017-04-11T03:22:57.152Z,19.96
2017-04-11T03:24:07.228Z,20.04
2017-04-11T03:25:17.523Z,19.97
2017-04-11T03:26:28.116Z,20.02
2017-04-11T03:27:38.406Z,19.96
2017-04-11T03:28:48.706Z,19.99
2017-04-11T03:29:58.998Z,20
2017-04-11T03:31:09.026Z,19.97
2017-04-11T03:32:19.276Z,20
2017-04-11T03:33:29.568Z,19.99
2017-04-11T03:34:39.859Z,19.9
2017-04-11T03:35:50.178Z,19.99
2017-04-11T03:37:00.474Z,19.89
2017-04-11T03:38:11.045Z,19.85
2017-04-11T03:39:21.021Z,19.93
2017-04-11T03:40:30.991Z,19.94
2017-04-11T03:41:41.277Z,19.97
2017-04-11T03:42:51.565Z,19.94
2017-04-11T03:44:01.793Z,19.96
2017-04-11T03:45:11.457Z,19.97
2017-04-11T03:46:21.748Z,19.89
2017-04-11T03:47:32.026Z,19.94
2017-04-11T03:48:42.325Z,19.94
2017-04-11T03:49:52.917Z,19.97
2017-04-11T03:51:02.894Z,20.02
2017-04-11T03:52:13.192Z,19.94
2017-04-11T03:53:23.171Z,19.96
2017-04-11T03:54:32.827Z,20.02
2017-04-11T03:55:43.358Z,20
2017-04-11T03:56:53.326Z,19.93
2017-04-11T03:58:03.297Z,20
2017-04-11T03:59:13.592Z,19.84
2017-04-11T04:00:23.881Z,20
2017-04-11T04:01:34.417Z,20
2017-04-11T04:02:44.132Z,20.02
2017-04-11T04:03:54.425Z,19.99
2017-04-11T04:05:04.410Z,19.93
2017-04-11T04:06:14.762Z,19.94
2017-04-11T04:07:25.304Z,19.94
2017-04-11T04:08:35.280Z,19.93
2017-04-11T04:09:45.253Z,20
2017-04-11T04:10:55.560Z,19.97
2017-04-11T04:12:05.532Z,19.99
2017-04-11T04:13:16.073Z,19.9
2017-04-11T04:14:26.069Z,19.93
2017-04-11T04:15:36.349Z,19.94
2017-04-11T04:16:46.862Z,20
2017-04-11T04:17:56.852Z,19.92
2017-04-11T04:19:07.411Z,19.9
2017-04-11T04:20:17.692Z,19.89
2017-04-11T04:21:27.978Z,19.92
2017-04-11T04:22:38.274Z,19.87
2017-04-11T04:23:48.546Z,19.89
2017-04-11T04:24:59.125Z,19.89
2017-04-11T04:26:09.415Z,20.03
2017-04-11T04:27:19.697Z,19.97
2017-04-11T04:28:29.980Z,19.85
2017-04-11T04:29:40.271Z,19.97
2017-04-11T04:30:50.799Z,19.97
2017-04-11T04:32:00.778Z,19.96
2017-04-11T04:33:11.166Z,20.02
2017-04-11T04:34:21.447Z,19.99
2017-04-11T04:35:31.734Z,19.97
2017-04-11T04:36:42.008Z,19.96
2017-04-11T04:37:52.290Z,20
2017-04-11T04:39:02.308Z,19.97
2017-04-11T04:40:12.591Z,20.1
2017-04-11T04:41:22.580Z,20.08
2017-04-11T04:42:33.129Z,20.03
2017-04-11T04:43:42.785Z,19.97
2017-04-11T04:44:53.081Z,20.03
2017-04-11T04:46:03.050Z,20.1
2017-04-11T04:47:13.370Z,20.07
2017-04-11T04:48:23.920Z,20.08
2017-04-11T04:49:34.210Z,20.07
2017-04-11T04:50:44.224Z,20.11
2017-04-11T04:51:54.504Z,20.14
2017-04-11T04:53:04.787Z,20.17
2017-04-11T04:54:15.342Z,20.11
2017-04-11T04:55:25.651Z,20.11
2017-04-11T04:56:35.933Z,20.17
2017-04-11T04:57:46.221Z,20.19
2017-04-11T04:58:56.535Z,20.17
2017-04-11T05:00:06.758Z,20.12
2017-04-11T05:01:17.041Z,20.12
2017-04-11T05:02:27.339Z,20.14
2017-04-11T05:03:37.621Z,20.19
2017-04-11T05:04:48.111Z,20.19
2017-04-11T05:05:58.650Z,20.24
2017-04-11T05:07:08.935Z,20.21
2017-04-11T05:08:19.228Z,20.3
2017-04-11T05:09:29.516Z,20.29
2017-04-11T05:10:39.493Z,20.24
2017-04-11T05:11:50.035Z,20.44
2017-04-11T05:13:00.030Z,20.46
2017-04-11T05:14:10.010Z,20.4
2017-04-11T05:15:19.983Z,20.52
2017-04-11T05:16:29.654Z,20.48
2017-04-11T05:17:40.189Z,20.5
2017-04-11T05:18:50.488Z,20.52
2017-04-11T05:20:00.773Z,20.58
2017-04-11T05:21:11.067Z,20.64
2017-04-11T05:22:21.343Z,20.68
2017-04-11T05:23:31.941Z,20.59
2017-04-11T05:24:41.923Z,20.68
2017-04-11T05:25:52.234Z,20.7
2017-04-11T05:27:02.211Z,20.7
2017-04-11T05:28:12.498Z,20.7
2017-04-11T05:29:23.193Z,20.7
2017-04-11T05:30:33.514Z,20.7
2017-04-11T05:31:43.483Z,20.74
2017-04-11T05:32:53.794Z,20.7
2017-04-11T05:34:04.082Z,20.71
2017-04-11T05:35:14.688Z,20.73
2017-04-11T05:36:24.982Z,20.67
2017-04-11T05:37:35.256Z,20.73
2017-04-11T05:38:45.547Z,20.74
2017-04-11T05:39:55.526Z,20.73
2017-04-11T05:41:06.068Z,20.73
2017-04-11T05:42:16.356Z,20.67
2017-04-11T05:43:26.325Z,20.59
2017-04-11T05:44:36.617Z,20.66
2017-04-11T05:45:46.900Z,20.7
2017-04-11T05:46:57.131Z,20.63
2017-04-11T05:48:07.412Z,20.66
2017-04-11T05:49:17.704Z,20.66
2017-04-11T05:50:27.994Z,20.59
2017-04-11T05:51:37.975Z,20.63
2017-04-11T05:52:48.507Z,20.73
2017-04-11T05:53:58.812Z,20.6
2017-04-11T05:55:09.114Z,20.68
2017-04-11T05:56:19.082Z,20.64
2017-04-11T05:57:29.152Z,20.6
2017-04-11T05:58:39.691Z,20.66
2017-04-11T05:59:49.875Z,20.58
2017-04-11T06:00:59.844Z,20.67
2017-04-11T06:02:10.136Z,20.64
2017-04-11T06:03:20.442Z,20.6
2017-04-11T06:04:30.665Z,20.66
2017-04-11T06:05:40.948Z,20.63
2017-04-11T06:06:51.450Z,20.64
2017-04-11T06:08:01.738Z,20.63
2017-04-11T06:09:11.705Z,20.67
2017-04-11T06:10:22.295Z,20.63
2017-04-11T06:11:32.583Z,20.67
2017-04-11T06:12:42.556Z,20.66
2017-04-11T06:13:52.845Z,20.63
2017-04-11T06:15:03.145Z,20.67
2017-04-11T06:16:13.104Z,20.56
2017-04-11T06:17:23.392Z,20.6
2017-04-11T06:18:33.686Z,20.56
2017-04-11T06:19:43.660Z,20.58
2017-04-11T06:20:53.634Z,20.64
2017-04-11T06:22:04.178Z,20.63
2017-04-11T06:23:14.470Z,20.64
2017-04-11T06:24:24.754Z,20.64
2017-04-11T06:25:34.731Z,20.58
2017-04-11T06:26:45.009Z,20.66
2017-04-11T06:27:55.626Z,20.67
2017-04-11T06:29:05.599Z,20.66
2017-04-11T06:30:15.578Z,20.59
2017-04-11T06:31:25.542Z,20.63
2017-04-11T06:32:35.847Z,20.68
2017-04-11T06:33:46.399Z,20.63
2017-04-11T06:34:56.686Z,20.67
2017-04-11T06:36:06.966Z,20.66
2017-04-11T06:37:16.934Z,20.64
2017-04-11T06:38:26.600Z,20.66
2017-04-11T06:39:37.135Z,20.71
2017-04-11T06:40:47.418Z,20.59
2017-04-11T06:41:57.705Z,20.7
2017-04-11T06:43:07.681Z,20.64
2017-04-11T06:44:17.973Z,20.67
2017-04-11T06:45:28.504Z,20.66
2017-04-11T06:46:38.797Z,20.66
2017-04-11T06:47:49.101Z,20.7
2017-04-11T06:48:58.785Z,20.64
2017-04-11T06:50:09.077Z,20.67
2017-04-11T06:51:19.658Z,20.66
2017-04-11T06:52:29.953Z,20.64
2017-04-11T06:53:40.241Z,20.67
2017-04-11T06:54:50.215Z,20.66
2017-04-11T06:55:59.887Z,20.64
2017-04-11T06:57:10.458Z,20.64
2017-04-11T06:58:20.746Z,20.63
2017-04-11T06:59:31.092Z,20.6
2017-04-11T07:00:41.423Z,20.67
2017-04-11T07:01:51.727Z,20.67
2017-04-11T07:03:01.956Z,20.59
2017-04-11T07:04:11.928Z,20.59
2017-04-11T07:05:22.211Z,20.67
2017-04-11T07:06:32.239Z,20.64
2017-04-11T07:07:41.806Z,20.68
2017-04-11T07:08:52.352Z,20.64
2017-04-11T07:10:02.389Z,20.66
2017-04-11T07:11:12.668Z,20.66
2017-04-11T07:12:22.972Z,20.67
2017-04-11T07:13:32.631Z,20.6
2017-04-11T07:14:43.164Z,20.64
2017-04-11T07:15:53.462Z,20.7
2017-04-11T07:17:03.436Z,20.7
2017-04-11T07:18:13.406Z,20.66
2017-04-11T07:19:23.708Z,20.66
2017-04-11T07:20:34.247Z,20.67
2017-04-11T07:21:44.231Z,20.67
2017-04-11T07:22:54.207Z,20.7
2017-04-11T07:24:04.175Z,20.7
2017-04-11T07:25:14.153Z,20.71
2017-04-11T07:26:24.777Z,20.7
2017-04-11T07:27:35.062Z,20.73
2017-04-11T07:28:45.046Z,20.73
2017-04-11T07:29:55.027Z,20.66
2017-04-11T07:31:04.689Z,20.67
2017-04-11T07:32:15.239Z,20.74
2017-04-11T07:33:25.452Z,20.68
2017-04-11T07:34:35.764Z,20.73
2017-04-11T07:35:45.749Z,20.63
2017-04-11T07:36:55.743Z,20.7
2017-04-11T07:38:06.271Z,20.68
2017-04-11T07:39:16.568Z,20.68
2017-04-11T07:40:26.229Z,20.7
2017-04-11T07:41:36.519Z,20.67
2017-04-11T07:42:46.803Z,20.7
2017-04-11T07:43:57.100Z,20.71
2017-04-11T07:45:07.081Z,20.73
2017-04-11T07:46:17.584Z,20.64
2017-04-11T07:47:27.565Z,20.7
2017-04-11T07:48:37.867Z,20.68
2017-04-11T07:49:48.098Z,20.64
2017-04-11T07:50:58.642Z,20.67
2017-04-11T07:52:08.619Z,20.73
2017-04-11T07:53:18.277Z,20.63
2017-04-11T07:54:28.267Z,20.7
2017-04-11T07:55:38.539Z,20.67
2017-04-11T07:56:48.821Z,20.66
2017-04-11T07:57:58.808Z,20.68
2017-04-11T07:59:08.781Z,20.64
2017-04-11T08:00:19.073Z,20.7
2017-04-11T08:01:29.666Z,20.67
2017-04-11T08:02:39.665Z,20.59
2017-04-11T08:03:49.342Z,20.7
2017-04-11T08:04:59.366Z,20.71
2017-04-11T08:06:09.663Z,20.64
2017-04-11T08:07:20.237Z,20.66
2017-04-11T08:08:30.538Z,20.63
2017-04-11T08:09:40.829Z,20.63
2017-04-11T08:10:51.182Z,20.64
2017-04-11T08:12:01.477Z,20.67
2017-04-11T08:13:11.401Z,20.67
2017-04-11T08:14:21.783Z,20.64
2017-04-11T08:15:31.469Z,20.63
2017-04-11T08:16:41.748Z,20.7
2017-04-11T08:17:51.760Z,20.64
2017-04-11T08:19:02.012Z,20.63
2017-04-11T08:20:12.566Z,20.64
2017-04-11T08:21:22.863Z,20.6
2017-04-11T08:22:33.181Z,20.59
2017-04-11T08:23:43.473Z,20.67
2017-04-11T08:24:54.306Z,20.64
2017-04-11T08:26:03.978Z,20.64
2017-04-11T08:27:14.256Z,20.67
2017-04-11T08:28:24.558Z,20.66
2017-04-11T08:29:34.866Z,20.67
2017-04-11T08:30:45.425Z,20.53
2017-04-11T08:31:55.749Z,20.56
2017-04-11T08:33:06.202Z,20.67
2017-04-11T08:34:16.494Z,20.59
2017-04-11T08:35:26.803Z,20.64
2017-04-11T08:36:37.375Z,20.64
2017-04-11T08:37:47.699Z,20.64
2017-04-11T08:38:58.293Z,20.7
2017-04-11T08:40:08.957Z,20.64
2017-04-11T08:41:19.257Z,20.67
2017-04-11T08:42:29.800Z,20.68
2017-04-11T08:43:39.478Z,20.68
2017-04-11T08:44:49.461Z,20.7
2017-04-11T08:45:59.441Z,20.7
2017-04-11T08:47:09.442Z,20.7
2017-04-11T08:48:19.979Z,20.66
2017-04-11T08:49:29.650Z,20.7
2017-04-11T08:50:39.641Z,20.6
2017-04-11T08:51:49.963Z,20.66
2017-04-11T08:52:59.932Z,20.68
2017-04-11T08:54:10.537Z,20.63
2017-04-11T08:55:20.860Z,20.64
2017-04-11T08:56:30.842Z,20.68
2017-04-11T08:57:40.817Z,20.66
2017-04-11T08:58:50.494Z,20.66
2017-04-11T09:00:01.047Z,20.7
2017-04-11T09:01:11.323Z,20.67
2017-04-11T09:02:21.629Z,20.71
2017-04-11T09:03:31.919Z,20.75
2017-04-11T09:04:41.588Z,20.68
2017-04-11T09:05:51.837Z,20.7
2017-04-11T09:07:01.827Z,20.8
2017-04-11T09:08:12.128Z,20.73
2017-04-11T09:09:22.423Z,20.75
2017-04-11T09:10:32.699Z,20.75
2017-04-11T09:11:43.237Z,20.8
2017-04-11T09:12:52.920Z,20.78
2017-04-11T09:14:03.250Z,20.74
2017-04-11T09:15:13.584Z,20.73
2017-04-11T09:16:23.570Z,20.8
2017-04-11T09:17:34.100Z,20.67
2017-04-11T09:18:44.402Z,20.75
2017-04-11T09:19:54.738Z,20.85
2017-04-11T09:21:05.037Z,20.8
2017-04-11T09:22:15.023Z,20.77
2017-04-11T09:23:25.305Z,20.8
2017-04-11T09:24:34.962Z,20.8
2017-04-11T09:25:45.249Z,20.74
2017-04-11T09:26:55.537Z,20.88
2017-04-11T09:28:05.520Z,20.8
2017-04-11T09:29:15.765Z,20.83
2017-04-11T09:30:25.742Z,20.89
2017-04-11T09:31:36.029Z,20.93
2017-04-11T09:32:46.027Z,20.89
2017-04-11T09:33:56.018Z,20.82
2017-04-11T09:35:06.622Z,20.85
2017-04-11T09:36:16.930Z,20.86
2017-04-11T09:37:26.616Z,20.86
2017-04-11T09:38:36.611Z,20.78
2017-04-11T09:39:46.931Z,20.86
2017-04-11T09:40:56.847Z,20.77
2017-04-11T09:42:07.224Z,20.8
2017-04-11T09:43:17.228Z,20.83
2017-04-11T09:44:27.524Z,20.88
2017-04-11T09:45:37.811Z,20.85
2017-04-11T09:46:48.353Z,20.83
2017-04-11T09:47:58.649Z,20.85
2017-04-11T09:49:08.951Z,20.86
2017-04-11T09:50:18.957Z,20.83
2017-04-11T09:51:28.951Z,20.82
2017-04-11T09:52:39.225Z,20.88
2017-04-11T09:53:49.514Z,20.82
2017-04-11T09:54:59.809Z,20.77
2017-04-11T09:56:09.794Z,20.71
2017-04-11T09:57:20.087Z,20.8
2017-04-11T09:58:30.637Z,20.74
2017-04-11T09:59:40.954Z,20.71
2017-04-11T10:00:50.959Z,20.8
2017-04-11T10:02:01.247Z,20.7
2017-04-11T10:03:11.236Z,20.8
2017-04-11T10:04:21.786Z,20.78
2017-04-11T10:05:31.756Z,20.75
2017-04-11T10:06:41.445Z,20.82
2017-04-11T10:07:51.441Z,20.82
2017-04-11T10:09:01.740Z,20.74
2017-04-11T10:10:12.024Z,20.75
2017-04-11T10:11:22.310Z,20.8
2017-04-11T10:12:32.610Z,20.75
2017-04-11T10:13:42.916Z,20.85
2017-04-11T10:14:53.212Z,20.78
2017-04-11T10:16:03.517Z,20.88
2017-04-11T10:17:13.492Z,20.8
2017-04-11T10:18:23.795Z,20.83
2017-04-11T10:19:33.854Z,20.89
2017-04-11T10:20:44.150Z,20.93
2017-04-11T10:21:54.700Z,20.89
2017-04-11T10:23:04.988Z,20.88
2017-04-11T10:24:14.973Z,20.83
2017-04-11T10:25:25.267Z,20.89
2017-04-11T10:26:35.550Z,20.82
2017-04-11T10:27:45.844Z,20.89
2017-04-11T10:28:55.537Z,20.86
2017-04-11T10:30:04.572Z,20.89
2017-04-11T10:31:14.552Z,20.93
2017-04-11T10:32:24.848Z,20.9
2017-04-11T10:33:35.411Z,20.89
2017-04-11T10:34:45.122Z,20.9
2017-04-11T10:35:55.420Z,20.88
2017-04-11T10:37:05.713Z,21.01
2017-04-11T10:38:15.698Z,20.92
2017-04-11T10:39:25.929Z,21.01
2017-04-11T10:40:36.225Z,21.03
2017-04-11T10:41:46.532Z,20.95
2017-04-11T10:42:56.836Z,20.96
2017-04-11T10:44:07.151Z,20.83
2017-04-11T10:45:17.380Z,20.96
2017-04-11T10:46:27.687Z,20.98
2017-04-11T10:47:37.672Z,20.93
2017-04-11T10:48:47.989Z,20.93
2017-04-11T10:49:58.277Z,20.89
2017-04-11T10:51:08.824Z,20.98
2017-04-11T10:52:18.846Z,20.9
2017-04-11T10:53:29.134Z,20.95
2017-04-11T10:54:39.416Z,21.03
2017-04-11T10:55:49.402Z,21
2017-04-11T10:56:59.959Z,21.04
2017-04-11T10:58:10.266Z,21.1
2017-04-11T10:59:20.554Z,21.04
2017-04-11T11:00:30.842Z,21.05
2017-04-11T11:01:40.830Z,21.1
2017-04-11T11:02:51.111Z,21.1
2017-04-11T11:04:01.404Z,21.03
2017-04-11T11:05:11.390Z,21.13
2017-04-11T11:06:21.050Z,21.1
2017-04-11T11:07:31.350Z,21.13
2017-04-11T11:08:41.885Z,21.13
2017-04-11T11:09:52.188Z,21.1
2017-04-11T11:11:02.177Z,21.1
2017-04-11T11:12:12.481Z,21.14
2017-04-11T11:13:22.774Z,21.14
2017-04-11T11:14:33.332Z,21.15
2017-04-11T11:15:43.334Z,21.15
2017-04-11T11:16:53.630Z,21.14
2017-04-11T11:18:03.607Z,21.13
2017-04-11T11:19:13.948Z,21.17
2017-04-11T11:20:24.496Z,21.17
2017-04-11T11:21:34.781Z,21.15
2017-04-11T11:22:45.092Z,21.13
2017-04-11T11:23:55.079Z,21.23
2017-04-11T11:25:05.367Z,21.2
2017-04-11T11:26:15.909Z,21.28
2017-04-11T11:27:25.879Z,21.28
2017-04-11T11:28:36.161Z,21.29
2017-04-11T11:29:46.455Z,21.26
2017-04-11T11:30:56.753Z,21.23
2017-04-11T11:32:07.299Z,21.25
2017-04-11T11:33:17.585Z,21.2
2017-04-11T11:34:27.888Z,21.13
2017-04-11T11:35:38.188Z,21.13
2017-04-11T11:36:48.478Z,21.17
2017-04-11T11:37:58.759Z,21.11
2017-04-11T11:39:08.736Z,21.15
2017-04-11T11:40:19.028Z,21.11
2017-04-11T11:41:29.327Z,21.14
2017-04-11T11:42:39.005Z,21.08
2017-04-11T11:43:49.551Z,21.1
2017-04-11T11:44:59.856Z,21.17
2017-04-11T11:46:10.143Z,21.22
2017-04-11T11:47:20.443Z,21.23
2017-04-11T11:48:30.125Z,21.25
2017-04-11T11:49:40.733Z,21.26
2017-04-11T11:50:51.026Z,21.28
2017-04-11T11:52:01.316Z,21.25
2017-04-11T11:53:11.650Z,21.33
2017-04-11T11:54:21.640Z,21.26
2017-04-11T11:55:31.556Z,21.32
2017-04-11T11:56:41.556Z,21.22
2017-04-11T11:57:51.845Z,21.22
2017-04-11T11:59:02.135Z,21.15
2017-04-11T12:00:12.201Z,21.17
2017-04-11T12:01:22.817Z,21.15
2017-04-11T12:02:33.130Z,21.19
2017-04-11T12:03:43.433Z,21.23
2017-04-11T12:04:53.743Z,21.29
2017-04-11T12:06:04.054Z,21.19
2017-04-11T12:07:14.631Z,21.25
2017-04-11T12:08:24.923Z,21.37
2017-04-11T12:09:35.132Z,21.26
2017-04-11T12:10:45.442Z,21.26
2017-04-11T12:11:55.780Z,21.29
2017-04-11T12:13:06.064Z,21.26
2017-04-11T12:14:16.044Z,21.23
2017-04-11T12:15:26.024Z,21.22
2017-04-11T12:16:36.312Z,21.17
2017-04-11T12:17:46.305Z,21.19
2017-04-11T12:18:56.868Z,21.2
2017-04-11T12:20:07.160Z,21.13
2017-04-11T12:21:17.476Z,21.1
2017-04-11T12:22:27.451Z,21.17
2017-04-11T12:23:37.750Z,21.11
2017-04-11T12:24:48.316Z,21.11
2017-04-11T12:25:58.307Z,21.11
2017-04-11T12:27:08.298Z,21.15
2017-04-11T12:28:18.289Z,21.15
2017-04-11T12:29:28.585Z,21.14
2017-04-11T12:30:39.186Z,21.17
2017-04-11T12:31:49.266Z,21.15
2017-04-11T12:32:59.564Z,21.14
2017-04-11T12:34:09.581Z,21.17
2017-04-11T12:35:19.877Z,21.13
2017-04-11T12:36:30.123Z,21.13
2017-04-11T12:37:40.410Z,21.19
2017-04-11T12:38:50.765Z,21.14
2017-04-11T12:40:00.750Z,21.22
2017-04-11T12:41:10.751Z,21.15
2017-04-11T12:42:21.293Z,21.13
2017-04-11T12:43:31.586Z,21.14
2017-04-11T12:44:41.891Z,21.17
2017-04-11T12:45:52.177Z,21.19
2017-04-11T12:47:01.851Z,21.15
2017-04-11T12:48:12.088Z,21.1
2017-04-11T12:49:22.385Z,21.19
2017-04-11T12:50:32.043Z,21.15
2017-04-11T12:51:41.702Z,21.11
2017-04-11T12:52:52.000Z,21.14
2017-04-11T12:54:02.222Z,21.14
2017-04-11T12:55:12.513Z,21.14
2017-04-11T12:56:22.514Z,21.2
2017-04-11T12:57:32.483Z,21.14
2017-04-11T12:58:42.772Z,21.05
2017-04-11T12:59:53.005Z,21.04
2017-04-11T13:01:02.984Z,21.04
2017-04-11T13:02:13.465Z,21.03
2017-04-11T13:03:23.755Z,21
2017-04-11T13:04:34.036Z,21.03
2017-04-11T13:05:44.468Z,21.04
2017-04-11T13:06:54.750Z,20.9
2017-04-11T13:08:05.039Z,20.88
2017-04-11T13:09:15.015Z,21.04
2017-04-11T13:10:24.992Z,20.96
2017-04-11T13:11:35.519Z,21
2017-04-11T13:12:45.815Z,20.93
2017-04-11T13:13:55.809Z,20.85
2017-04-11T13:15:06.102Z,20.86
2017-04-11T13:16:16.394Z,20.88
2017-04-11T13:17:26.670Z,20.89
2017-04-11T13:18:36.662Z,20.88
2017-04-11T13:19:46.959Z,20.92
2017-04-11T13:20:56.636Z,20.89
2017-04-11T13:22:06.603Z,20.9
2017-04-11T13:23:16.902Z,20.86
2017-04-11T13:24:26.887Z,20.86
2017-04-11T13:25:36.861Z,20.93
2017-04-11T13:26:47.153Z,20.93
2017-04-11T13:27:56.822Z,20.89
2017-04-11T13:29:07.361Z,20.86
2017-04-11T13:30:17.658Z,20.9
2017-04-11T13:31:27.650Z,20.85
2017-04-11T13:32:37.625Z,20.9
2017-04-11T13:33:47.918Z,20.77
2017-04-11T13:34:58.192Z,20.77
2017-04-11T13:36:07.891Z,20.82
2017-04-11T13:37:18.237Z,20.78
2017-04-11T13:38:28.518Z,20.82
2017-04-11T13:39:38.514Z,20.8
2017-04-11T13:40:48.739Z,20.78
2017-04-11T13:41:58.722Z,20.83
2017-04-11T13:43:09.000Z,20.71
2017-04-11T13:44:19.286Z,20.77
2017-04-11T13:45:29.581Z,20.86
2017-04-11T13:46:39.854Z,20.83
2017-04-11T13:47:49.823Z,20.85
2017-04-11T13:48:59.482Z,20.82
2017-04-11T13:50:09.798Z,20.78
2017-04-11T13:51:20.092Z,20.78
2017-04-11T13:52:30.007Z,20.77
2017-04-11T13:53:39.984Z,20.75
2017-04-11T13:54:50.280Z,20.71
2017-04-11T13:56:00.561Z,20.74
2017-04-11T13:57:10.861Z,20.8
2017-04-11T13:58:21.099Z,20.8
2017-04-11T13:59:31.088Z,20.73
2017-04-11T14:00:41.069Z,20.74
2017-04-11T14:01:51.040Z,20.82
2017-04-11T14:03:00.711Z,20.71
2017-04-11T14:04:10.686Z,20.71
2017-04-11T14:05:21.001Z,20.73
2017-04-11T14:06:31.292Z,20.75
2017-04-11T14:07:41.597Z,20.75
2017-04-11T14:08:51.599Z,20.78
2017-04-11T14:10:02.151Z,20.74
2017-04-11T14:11:11.813Z,20.82
2017-04-11T14:12:21.950Z,20.75
2017-04-11T14:13:31.932Z,20.74
2017-04-11T14:14:42.237Z,20.82
2017-04-11T14:15:52.480Z,20.8
2017-04-11T14:17:02.455Z,20.78
2017-04-11T14:18:12.757Z,20.77
2017-04-11T14:19:23.041Z,20.73
2017-04-11T14:20:33.028Z,20.75
2017-04-11T14:21:43.637Z,20.68
2017-04-11T14:22:53.926Z,20.74
2017-04-11T14:24:04.218Z,20.74
2017-04-11T14:25:14.214Z,20.77
2017-04-11T14:26:24.196Z,20.77
2017-04-11T14:27:34.485Z,20.74
2017-04-11T14:28:44.781Z,20.7
2017-04-11T14:29:54.462Z,20.71
2017-04-11T14:31:04.775Z,20.74
2017-04-11T14:32:14.751Z,20.71
2017-04-11T14:33:25.541Z,20.74
2017-04-11T14:34:35.836Z,20.73
2017-04-11T14:35:46.125Z,20.75
2017-04-11T14:36:56.410Z,20.74
2017-04-11T14:38:06.902Z,20.73
2017-04-11T14:39:17.181Z,20.75
2017-04-11T14:40:27.178Z,20.75
2017-04-11T14:41:37.472Z,20.74
2017-04-11T14:42:47.449Z,20.73
2017-04-11T14:43:57.778Z,20.7
2017-04-11T14:45:08.339Z,20.66
2017-04-11T14:46:18.699Z,20.73
2017-04-11T14:47:28.977Z,20.73
2017-04-11T14:48:38.975Z,20.68
2017-04-11T14:49:48.978Z,20.73
2017-04-11T14:50:59.520Z,20.73
2017-04-11T14:52:09.821Z,20.74
2017-04-11T14:53:19.802Z,20.74
2017-04-11T14:54:29.843Z,20.77
2017-04-11T14:55:40.141Z,20.71
2017-04-11T14:56:50.683Z,20.67
2017-04-11T14:58:00.973Z,20.71
2017-04-11T14:59:11.281Z,20.64
2017-04-11T15:00:20.970Z,20.71
2017-04-11T15:01:31.273Z,20.67
2017-04-11T15:02:41.830Z,20.71
2017-04-11T15:03:51.512Z,20.73
2017-04-11T15:05:01.521Z,20.7
2017-04-11T15:06:11.822Z,20.67
2017-04-11T15:07:21.823Z,20.59
2017-04-11T15:08:32.366Z,20.7
2017-04-11T15:09:42.352Z,20.64